sensor_id;sensor_type;location;lat;lon;timestamp;P1;durP1;ratioP1;P2;durP2;ratioP2
77191;SDS011;66172;48.526;8.078;2024-03-17T00:01:00;6.03;;;2.15;;
77191;SDS011;66172;48.526;8.078;2024-03-17T00:03:32;4.40;;;1.50;;
77191;SDS011;66172;48.526;8.078;2024-03-17T00:05:58;5.50;;;1.80;;
77191;SDS011;66172;48.526;8.078;2024-03-17T00:08:25;5.38;;;2.00;;
77191;SDS011;66172;48.526;8.078;2024-03-17T00:10:51;5.80;;;2.00;;
77191;SDS011;66172;48.526;8.078;2024-03-17T00:13:18;5.28;;;1.73;;
77191;SDS011;66172;48.526;8.078;2024-03-17T00:15:44;5.15;;;1.83;;
77191;SDS011;66172;48.526;8.078;2024-03-17T00:18:10;5.43;;;1.97;;
77191;SDS011;66172;48.526;8.078;2024-03-17T00:20:36;4.72;;;1.70;;
77191;SDS011;66172;48.526;8.078;2024-03-17T00:23:04;5.40;;;1.90;;
77191;SDS011;66172;48.526;8.078;2024-03-17T00:25:32;5.38;;;1.60;;
77191;SDS011;66172;48.526;8.078;2024-03-17T00:27:59;4.78;;;1.38;;
77191;SDS011;66172;48.526;8.078;2024-03-17T00:30:25;5.60;;;1.60;;
77191;SDS011;66172;48.526;8.078;2024-03-17T00:32:52;5.35;;;1.58;;
77191;SDS011;66172;48.526;8.078;2024-03-17T00:35:18;4.93;;;1.80;;
77191;SDS011;66172;48.526;8.078;2024-03-17T00:37:47;5.47;;;1.52;;
77191;SDS011;66172;48.526;8.078;2024-03-17T00:40:13;5.57;;;2.15;;
77191;SDS011;66172;48.526;8.078;2024-03-17T00:42:39;5.53;;;2.00;;
77191;SDS011;66172;48.526;8.078;2024-03-17T00:45:06;6.55;;;2.05;;
77191;SDS011;66172;48.526;8.078;2024-03-17T00:47:33;6.95;;;2.03;;
77191;SDS011;66172;48.526;8.078;2024-03-17T00:49:58;6.60;;;2.03;;
77191;SDS011;66172;48.526;8.078;2024-03-17T00:52:24;8.77;;;2.00;;
77191;SDS011;66172;48.526;8.078;2024-03-17T00:54:50;5.60;;;2.50;;
77191;SDS011;66172;48.526;8.078;2024-03-17T00:57:16;5.95;;;2.33;;
77191;SDS011;66172;48.526;8.078;2024-03-17T00:59:42;6.57;;;2.00;;
77191;SDS011;66172;48.526;8.078;2024-03-17T01:02:12;6.00;;;1.77;;
77191;SDS011;66172;48.526;8.078;2024-03-17T01:04:40;5.05;;;1.73;;
77191;SDS011;66172;48.526;8.078;2024-03-17T01:07:06;7.88;;;1.90;;
77191;SDS011;66172;48.526;8.078;2024-03-17T01:09:31;6.28;;;2.00;;
77191;SDS011;66172;48.526;8.078;2024-03-17T01:11:57;5.63;;;1.73;;
77191;SDS011;66172;48.526;8.078;2024-03-17T01:14:23;8.82;;;2.03;;
77191;SDS011;66172;48.526;8.078;2024-03-17T01:16:52;6.15;;;1.42;;
77191;SDS011;66172;48.526;8.078;2024-03-17T01:19:18;6.63;;;1.90;;
77191;SDS011;66172;48.526;8.078;2024-03-17T01:21:44;4.90;;;1.80;;
77191;SDS011;66172;48.526;8.078;2024-03-17T01:24:10;4.90;;;1.83;;
77191;SDS011;66172;48.526;8.078;2024-03-17T01:26:36;5.53;;;1.70;;
77191;SDS011;66172;48.526;8.078;2024-03-17T01:29:02;5.73;;;1.73;;
77191;SDS011;66172;48.526;8.078;2024-03-17T01:31:28;5.03;;;1.90;;
77191;SDS011;66172;48.526;8.078;2024-03-17T01:33:54;6.47;;;1.70;;
77191;SDS011;66172;48.526;8.078;2024-03-17T01:36:20;6.38;;;2.10;;
77191;SDS011;66172;48.526;8.078;2024-03-17T01:38:45;5.80;;;1.87;;
77191;SDS011;66172;48.526;8.078;2024-03-17T01:41:11;4.95;;;1.67;;
77191;SDS011;66172;48.526;8.078;2024-03-17T01:43:38;4.78;;;1.35;;
77191;SDS011;66172;48.526;8.078;2024-03-17T01:46:04;5.87;;;1.53;;
77191;SDS011;66172;48.526;8.078;2024-03-17T01:48:31;6.15;;;1.90;;
77191;SDS011;66172;48.526;8.078;2024-03-17T01:50:57;6.47;;;1.65;;
77191;SDS011;66172;48.526;8.078;2024-03-17T01:53:23;5.90;;;1.55;;
77191;SDS011;66172;48.526;8.078;2024-03-17T01:55:50;5.13;;;1.52;;
77191;SDS011;66172;48.526;8.078;2024-03-17T01:58:19;4.43;;;1.30;;
77191;SDS011;66172;48.526;8.078;2024-03-17T02:00:46;5.32;;;1.50;;
77191;SDS011;66172;48.526;8.078;2024-03-17T02:03:12;6.43;;;1.75;;
77191;SDS011;66172;48.526;8.078;2024-03-17T02:05:38;5.53;;;1.58;;
77191;SDS011;66172;48.526;8.078;2024-03-17T02:08:05;7.17;;;1.53;;
77191;SDS011;66172;48.526;8.078;2024-03-17T02:10:32;5.60;;;1.42;;
77191;SDS011;66172;48.526;8.078;2024-03-17T02:12:59;4.68;;;1.25;;
77191;SDS011;66172;48.526;8.078;2024-03-17T02:15:26;6.50;;;1.55;;
77191;SDS011;66172;48.526;8.078;2024-03-17T02:17:52;5.60;;;1.58;;
77191;SDS011;66172;48.526;8.078;2024-03-17T02:20:18;5.23;;;1.50;;
77191;SDS011;66172;48.526;8.078;2024-03-17T02:22:44;5.78;;;1.92;;
77191;SDS011;66172;48.526;8.078;2024-03-17T02:25:10;5.72;;;1.88;;
77191;SDS011;66172;48.526;8.078;2024-03-17T02:27:36;6.53;;;1.55;;
77191;SDS011;66172;48.526;8.078;2024-03-17T02:30:02;4.57;;;1.47;;
77191;SDS011;66172;48.526;8.078;2024-03-17T02:32:32;5.55;;;1.60;;
77191;SDS011;66172;48.526;8.078;2024-03-17T02:34:59;5.75;;;1.80;;
77191;SDS011;66172;48.526;8.078;2024-03-17T02:37:25;5.50;;;1.60;;
77191;SDS011;66172;48.526;8.078;2024-03-17T02:39:52;5.00;;;1.60;;
77191;SDS011;66172;48.526;8.078;2024-03-17T02:42:18;6.80;;;1.50;;
77191;SDS011;66172;48.526;8.078;2024-03-17T02:44:44;7.05;;;1.50;;
77191;SDS011;66172;48.526;8.078;2024-03-17T02:47:11;4.95;;;1.70;;
77191;SDS011;66172;48.526;8.078;2024-03-17T02:49:40;4.47;;;1.40;;
77191;SDS011;66172;48.526;8.078;2024-03-17T02:52:09;5.30;;;1.52;;
77191;SDS011;66172;48.526;8.078;2024-03-17T02:54:36;4.57;;;1.87;;
77191;SDS011;66172;48.526;8.078;2024-03-17T02:57:03;5.57;;;1.48;;
77191;SDS011;66172;48.526;8.078;2024-03-17T02:59:30;4.68;;;1.45;;
77191;SDS011;66172;48.526;8.078;2024-03-17T03:01:56;5.10;;;1.52;;
77191;SDS011;66172;48.526;8.078;2024-03-17T03:04:23;4.88;;;1.45;;
77191;SDS011;66172;48.526;8.078;2024-03-17T03:06:49;6.20;;;1.40;;
77191;SDS011;66172;48.526;8.078;2024-03-17T03:09:15;6.63;;;1.67;;
77191;SDS011;66172;48.526;8.078;2024-03-17T03:11:46;5.00;;;1.80;;
77191;SDS011;66172;48.526;8.078;2024-03-17T03:14:12;5.15;;;1.92;;
77191;SDS011;66172;48.526;8.078;2024-03-17T03:16:38;6.40;;;1.70;;
77191;SDS011;66172;48.526;8.078;2024-03-17T03:19:04;6.03;;;1.70;;
77191;SDS011;66172;48.526;8.078;2024-03-17T03:21:33;5.13;;;2.00;;
77191;SDS011;66172;48.526;8.078;2024-03-17T03:23:59;6.55;;;1.80;;
77191;SDS011;66172;48.526;8.078;2024-03-17T03:26:25;5.00;;;1.60;;
77191;SDS011;66172;48.526;8.078;2024-03-17T03:28:50;6.13;;;1.90;;
77191;SDS011;66172;48.526;8.078;2024-03-17T03:31:16;5.03;;;1.65;;
77191;SDS011;66172;48.526;8.078;2024-03-17T03:33:43;5.32;;;1.70;;
77191;SDS011;66172;48.526;8.078;2024-03-17T03:36:09;4.90;;;1.50;;
77191;SDS011;66172;48.526;8.078;2024-03-17T03:38:36;5.25;;;1.77;;
77191;SDS011;66172;48.526;8.078;2024-03-17T03:41:09;4.70;;;1.60;;
77191;SDS011;66172;48.526;8.078;2024-03-17T03:43:36;4.90;;;1.58;;
77191;SDS011;66172;48.526;8.078;2024-03-17T03:46:02;5.67;;;1.90;;
77191;SDS011;66172;48.526;8.078;2024-03-17T03:48:28;5.80;;;1.55;;
77191;SDS011;66172;48.526;8.078;2024-03-17T03:50:54;5.13;;;1.52;;
77191;SDS011;66172;48.526;8.078;2024-03-17T03:53:20;4.68;;;1.50;;
77191;SDS011;66172;48.526;8.078;2024-03-17T03:55:46;5.73;;;1.80;;
77191;SDS011;66172;48.526;8.078;2024-03-17T03:58:12;5.35;;;1.70;;
77191;SDS011;66172;48.526;8.078;2024-03-17T04:00:38;6.57;;;1.60;;
77191;SDS011;66172;48.526;8.078;2024-03-17T04:03:05;5.13;;;1.80;;
77191;SDS011;66172;48.526;8.078;2024-03-17T04:05:31;6.20;;;1.90;;
77191;SDS011;66172;48.526;8.078;2024-03-17T04:07:57;5.50;;;1.77;;
77191;SDS011;66172;48.526;8.078;2024-03-17T04:10:23;6.63;;;1.70;;
77191;SDS011;66172;48.526;8.078;2024-03-17T04:12:50;5.35;;;2.08;;
77191;SDS011;66172;48.526;8.078;2024-03-17T04:15:17;5.32;;;1.50;;
77191;SDS011;66172;48.526;8.078;2024-03-17T04:17:42;5.70;;;1.60;;
77191;SDS011;66172;48.526;8.078;2024-03-17T04:20:08;5.60;;;2.33;;
77191;SDS011;66172;48.526;8.078;2024-03-17T04:22:38;8.00;;;1.80;;
77191;SDS011;66172;48.526;8.078;2024-03-17T04:25:05;5.88;;;2.05;;
77191;SDS011;66172;48.526;8.078;2024-03-17T04:27:32;5.60;;;2.15;;
77191;SDS011;66172;48.526;8.078;2024-03-17T04:29:58;6.57;;;1.83;;
77191;SDS011;66172;48.526;8.078;2024-03-17T04:32:25;6.57;;;1.95;;
77191;SDS011;66172;48.526;8.078;2024-03-17T04:34:54;6.05;;;2.20;;
77191;SDS011;66172;48.526;8.078;2024-03-17T04:37:20;6.90;;;2.45;;
77191;SDS011;66172;48.526;8.078;2024-03-17T04:39:46;6.40;;;1.90;;
77191;SDS011;66172;48.526;8.078;2024-03-17T04:42:13;5.57;;;2.10;;
77191;SDS011;66172;48.526;8.078;2024-03-17T04:44:42;7.28;;;2.40;;
77191;SDS011;66172;48.526;8.078;2024-03-17T04:47:08;7.43;;;2.33;;
77191;SDS011;66172;48.526;8.078;2024-03-17T04:49:35;5.95;;;2.30;;
77191;SDS011;66172;48.526;8.078;2024-03-17T04:52:03;6.57;;;1.90;;
77191;SDS011;66172;48.526;8.078;2024-03-17T04:54:32;7.28;;;2.53;;
77191;SDS011;66172;48.526;8.078;2024-03-17T04:56:59;6.72;;;1.80;;
77191;SDS011;66172;48.526;8.078;2024-03-17T04:59:25;4.60;;;1.48;;
77191;SDS011;66172;48.526;8.078;2024-03-17T05:01:52;5.17;;;1.40;;
77191;SDS011;66172;48.526;8.078;2024-03-17T05:04:18;7.30;;;1.88;;
77191;SDS011;66172;48.526;8.078;2024-03-17T05:06:44;9.10;;;2.78;;
77191;SDS011;66172;48.526;8.078;2024-03-17T05:09:18;5.90;;;2.00;;
77191;SDS011;66172;48.526;8.078;2024-03-17T05:11:44;6.22;;;2.30;;
77191;SDS011;66172;48.526;8.078;2024-03-17T05:14:11;6.03;;;1.50;;
77191;SDS011;66172;48.526;8.078;2024-03-17T05:16:37;5.32;;;1.63;;
77191;SDS011;66172;48.526;8.078;2024-03-17T05:19:03;6.50;;;2.13;;
77191;SDS011;66172;48.526;8.078;2024-03-17T05:21:29;4.60;;;1.88;;
77191;SDS011;66172;48.526;8.078;2024-03-17T05:24:00;5.43;;;2.10;;
77191;SDS011;66172;48.526;8.078;2024-03-17T05:26:27;6.50;;;1.83;;
77191;SDS011;66172;48.526;8.078;2024-03-17T05:28:53;6.05;;;1.60;;
77191;SDS011;66172;48.526;8.078;2024-03-17T05:31:19;6.43;;;1.63;;
77191;SDS011;66172;48.526;8.078;2024-03-17T05:33:47;4.47;;;1.70;;
77191;SDS011;66172;48.526;8.078;2024-03-17T05:36:13;6.68;;;1.98;;
77191;SDS011;66172;48.526;8.078;2024-03-17T05:38:39;7.00;;;1.40;;
77191;SDS011;66172;48.526;8.078;2024-03-17T05:41:06;4.30;;;1.50;;
77191;SDS011;66172;48.526;8.078;2024-03-17T05:43:36;6.60;;;1.42;;
77191;SDS011;66172;48.526;8.078;2024-03-17T05:46:04;5.00;;;1.75;;
77191;SDS011;66172;48.526;8.078;2024-03-17T05:48:32;7.20;;;2.80;;
77191;SDS011;66172;48.526;8.078;2024-03-17T05:51:00;5.33;;;1.80;;
77191;SDS011;66172;48.526;8.078;2024-03-17T05:53:28;5.85;;;2.00;;
77191;SDS011;66172;48.526;8.078;2024-03-17T05:55:54;5.50;;;1.50;;
77191;SDS011;66172;48.526;8.078;2024-03-17T05:58:20;6.85;;;1.55;;
77191;SDS011;66172;48.526;8.078;2024-03-17T06:00:46;5.80;;;1.90;;
77191;SDS011;66172;48.526;8.078;2024-03-17T06:03:12;6.05;;;1.73;;
77191;SDS011;66172;48.526;8.078;2024-03-17T06:05:39;5.30;;;1.75;;
77191;SDS011;66172;48.526;8.078;2024-03-17T06:08:08;6.07;;;1.75;;
77191;SDS011;66172;48.526;8.078;2024-03-17T06:10:35;5.70;;;1.77;;
77191;SDS011;66172;48.526;8.078;2024-03-17T06:13:02;5.30;;;1.73;;
77191;SDS011;66172;48.526;8.078;2024-03-17T06:15:29;6.28;;;2.03;;
77191;SDS011;66172;48.526;8.078;2024-03-17T06:17:55;6.30;;;2.50;;
77191;SDS011;66172;48.526;8.078;2024-03-17T06:20:25;6.50;;;2.20;;
77191;SDS011;66172;48.526;8.078;2024-03-17T06:22:54;5.72;;;2.22;;
77191;SDS011;66172;48.526;8.078;2024-03-17T06:25:20;5.80;;;1.70;;
77191;SDS011;66172;48.526;8.078;2024-03-17T06:27:49;5.65;;;2.05;;
77191;SDS011;66172;48.526;8.078;2024-03-17T06:30:16;5.40;;;2.00;;
77191;SDS011;66172;48.526;8.078;2024-03-17T06:32:42;5.93;;;1.80;;
77191;SDS011;66172;48.526;8.078;2024-03-17T06:35:12;5.30;;;1.80;;
77191;SDS011;66172;48.526;8.078;2024-03-17T06:37:42;4.87;;;1.70;;
77191;SDS011;66172;48.526;8.078;2024-03-17T06:40:12;4.93;;;1.80;;
77191;SDS011;66172;48.526;8.078;2024-03-17T06:42:39;6.18;;;1.60;;
77191;SDS011;66172;48.526;8.078;2024-03-17T06:45:05;6.40;;;1.90;;
77191;SDS011;66172;48.526;8.078;2024-03-17T06:47:37;4.70;;;1.60;;
77191;SDS011;66172;48.526;8.078;2024-03-17T06:50:04;5.20;;;1.70;;
77191;SDS011;66172;48.526;8.078;2024-03-17T06:52:30;6.28;;;2.00;;
77191;SDS011;66172;48.526;8.078;2024-03-17T06:54:57;7.55;;;2.35;;
77191;SDS011;66172;48.526;8.078;2024-03-17T06:57:24;5.57;;;2.13;;
77191;SDS011;66172;48.526;8.078;2024-03-17T06:59:50;6.15;;;2.20;;
77191;SDS011;66172;48.526;8.078;2024-03-17T07:02:16;6.57;;;1.97;;
77191;SDS011;66172;48.526;8.078;2024-03-17T07:04:44;6.03;;;2.28;;
77191;SDS011;66172;48.526;8.078;2024-03-17T07:07:10;6.63;;;2.28;;
77191;SDS011;66172;48.526;8.078;2024-03-17T07:09:38;6.28;;;2.00;;
77191;SDS011;66172;48.526;8.078;2024-03-17T07:12:07;5.22;;;1.60;;
77191;SDS011;66172;48.526;8.078;2024-03-17T07:14:36;5.07;;;1.50;;
77191;SDS011;66172;48.526;8.078;2024-03-17T07:17:03;5.32;;;1.80;;
77191;SDS011;66172;48.526;8.078;2024-03-17T07:19:29;4.90;;;1.80;;
77191;SDS011;66172;48.526;8.078;2024-03-17T07:21:57;7.20;;;2.55;;
77191;SDS011;66172;48.526;8.078;2024-03-17T07:24:23;5.25;;;2.28;;
77191;SDS011;66172;48.526;8.078;2024-03-17T07:26:49;6.07;;;2.50;;
77191;SDS011;66172;48.526;8.078;2024-03-17T07:29:15;6.30;;;2.63;;
77191;SDS011;66172;48.526;8.078;2024-03-17T07:31:42;8.52;;;2.40;;
77191;SDS011;66172;48.526;8.078;2024-03-17T07:34:07;6.25;;;2.45;;
77191;SDS011;66172;48.526;8.078;2024-03-17T07:36:34;8.73;;;2.50;;
77191;SDS011;66172;48.526;8.078;2024-03-17T07:39:00;5.63;;;1.80;;
77191;SDS011;66172;48.526;8.078;2024-03-17T07:41:26;5.00;;;1.80;;
77191;SDS011;66172;48.526;8.078;2024-03-17T07:43:52;8.20;;;2.35;;
77191;SDS011;66172;48.526;8.078;2024-03-17T07:46:18;7.47;;;2.17;;
77191;SDS011;66172;48.526;8.078;2024-03-17T07:48:44;6.70;;;3.42;;
77191;SDS011;66172;48.526;8.078;2024-03-17T07:51:13;10.10;;;3.53;;
77191;SDS011;66172;48.526;8.078;2024-03-17T07:53:42;6.90;;;3.63;;
77191;SDS011;66172;48.526;8.078;2024-03-17T07:56:15;8.03;;;3.77;;
77191;SDS011;66172;48.526;8.078;2024-03-17T07:58:43;8.43;;;4.25;;
77191;SDS011;66172;48.526;8.078;2024-03-17T08:01:10;7.50;;;3.67;;
77191;SDS011;66172;48.526;8.078;2024-03-17T08:03:37;8.10;;;3.88;;
77191;SDS011;66172;48.526;8.078;2024-03-17T08:06:09;7.40;;;3.40;;
77191;SDS011;66172;48.526;8.078;2024-03-17T08:08:39;8.33;;;3.83;;
77191;SDS011;66172;48.526;8.078;2024-03-17T08:11:05;8.82;;;4.25;;
77191;SDS011;66172;48.526;8.078;2024-03-17T08:13:31;8.40;;;3.95;;
77191;SDS011;66172;48.526;8.078;2024-03-17T08:16:01;8.38;;;4.18;;
77191;SDS011;66172;48.526;8.078;2024-03-17T08:18:28;8.93;;;3.50;;
77191;SDS011;66172;48.526;8.078;2024-03-17T08:20:55;8.77;;;4.77;;
77191;SDS011;66172;48.526;8.078;2024-03-17T08:23:21;7.63;;;4.30;;
77191;SDS011;66172;48.526;8.078;2024-03-17T08:25:54;9.77;;;4.68;;
77191;SDS011;66172;48.526;8.078;2024-03-17T08:28:24;7.82;;;4.35;;
77191;SDS011;66172;48.526;8.078;2024-03-17T08:30:52;8.02;;;4.18;;
77191;SDS011;66172;48.526;8.078;2024-03-17T08:33:22;6.77;;;3.60;;
77191;SDS011;66172;48.526;8.078;2024-03-17T08:35:55;7.97;;;3.47;;
77191;SDS011;66172;48.526;8.078;2024-03-17T08:38:21;8.02;;;4.07;;
77191;SDS011;66172;48.526;8.078;2024-03-17T08:40:52;7.57;;;4.10;;
77191;SDS011;66172;48.526;8.078;2024-03-17T08:43:18;7.10;;;4.25;;
77191;SDS011;66172;48.526;8.078;2024-03-17T08:45:45;7.67;;;4.37;;
77191;SDS011;66172;48.526;8.078;2024-03-17T08:48:19;9.75;;;4.20;;
77191;SDS011;66172;48.526;8.078;2024-03-17T08:50:52;8.60;;;4.22;;
77191;SDS011;66172;48.526;8.078;2024-03-17T08:53:19;8.18;;;3.90;;
77191;SDS011;66172;48.526;8.078;2024-03-17T08:55:45;9.30;;;4.45;;
77191;SDS011;66172;48.526;8.078;2024-03-17T08:58:11;7.10;;;4.30;;
77191;SDS011;66172;48.526;8.078;2024-03-17T09:00:37;8.70;;;3.70;;
77191;SDS011;66172;48.526;8.078;2024-03-17T09:03:03;7.60;;;4.28;;
77191;SDS011;66172;48.526;8.078;2024-03-17T09:05:32;8.50;;;4.32;;
77191;SDS011;66172;48.526;8.078;2024-03-17T09:07:59;8.53;;;4.67;;
77191;SDS011;66172;48.526;8.078;2024-03-17T09:10:24;10.65;;;4.80;;
77191;SDS011;66172;48.526;8.078;2024-03-17T09:12:50;8.48;;;3.70;;
77191;SDS011;66172;48.526;8.078;2024-03-17T09:15:16;8.20;;;3.80;;
77191;SDS011;66172;48.526;8.078;2024-03-17T09:17:42;6.55;;;3.25;;
77191;SDS011;66172;48.526;8.078;2024-03-17T09:20:10;6.65;;;3.63;;
77191;SDS011;66172;48.526;8.078;2024-03-17T09:22:38;7.50;;;3.33;;
77191;SDS011;66172;48.526;8.078;2024-03-17T09:25:05;7.18;;;3.03;;
77191;SDS011;66172;48.526;8.078;2024-03-17T09:27:32;5.50;;;3.00;;
77191;SDS011;66172;48.526;8.078;2024-03-17T09:29:59;6.28;;;3.20;;
77191;SDS011;66172;48.526;8.078;2024-03-17T09:32:25;8.77;;;2.97;;
77191;SDS011;66172;48.526;8.078;2024-03-17T09:34:51;8.10;;;3.38;;
77191;SDS011;66172;48.526;8.078;2024-03-17T09:37:17;6.73;;;2.80;;
77191;SDS011;66172;48.526;8.078;2024-03-17T09:39:46;8.25;;;3.30;;
77191;SDS011;66172;48.526;8.078;2024-03-17T09:42:17;7.95;;;3.67;;
77191;SDS011;66172;48.526;8.078;2024-03-17T09:44:47;6.60;;;3.45;;
77191;SDS011;66172;48.526;8.078;2024-03-17T09:47:21;6.63;;;3.67;;
77191;SDS011;66172;48.526;8.078;2024-03-17T09:49:47;7.18;;;3.78;;
77191;SDS011;66172;48.526;8.078;2024-03-17T09:52:20;7.90;;;3.38;;
77191;SDS011;66172;48.526;8.078;2024-03-17T09:55:00;6.97;;;3.10;;
77191;SDS011;66172;48.526;8.078;2024-03-17T09:57:27;7.88;;;4.00;;
77191;SDS011;66172;48.526;8.078;2024-03-17T10:00:11;6.97;;;3.40;;
77191;SDS011;66172;48.526;8.078;2024-03-17T10:02:45;6.88;;;3.75;;
77191;SDS011;66172;48.526;8.078;2024-03-17T10:05:22;8.13;;;4.00;;
77191;SDS011;66172;48.526;8.078;2024-03-17T10:07:49;7.68;;;3.55;;
77191;SDS011;66172;48.526;8.078;2024-03-17T10:10:16;9.05;;;4.10;;
77191;SDS011;66172;48.526;8.078;2024-03-17T10:12:44;8.97;;;4.10;;
77191;SDS011;66172;48.526;8.078;2024-03-17T10:15:15;7.97;;;3.90;;
77191;SDS011;66172;48.526;8.078;2024-03-17T10:17:41;8.23;;;4.18;;
77191;SDS011;66172;48.526;8.078;2024-03-17T10:20:19;8.80;;;4.43;;
77191;SDS011;66172;48.526;8.078;2024-03-17T10:25:31;8.35;;;3.97;;
77191;SDS011;66172;48.526;8.078;2024-03-17T10:27:59;7.80;;;4.43;;
77191;SDS011;66172;48.526;8.078;2024-03-17T10:30:26;10.57;;;4.28;;
77191;SDS011;66172;48.526;8.078;2024-03-17T10:35:28;7.33;;;3.90;;
77191;SDS011;66172;48.526;8.078;2024-03-17T10:37:56;8.15;;;4.45;;
77191;SDS011;66172;48.526;8.078;2024-03-17T10:40:24;9.52;;;4.10;;
77191;SDS011;66172;48.526;8.078;2024-03-17T10:42:50;8.15;;;4.22;;
77191;SDS011;66172;48.526;8.078;2024-03-17T10:45:16;9.23;;;4.05;;
77191;SDS011;66172;48.526;8.078;2024-03-17T10:47:43;7.97;;;4.07;;
77191;SDS011;66172;48.526;8.078;2024-03-17T10:50:22;7.18;;;4.00;;
77191;SDS011;66172;48.526;8.078;2024-03-17T10:52:52;7.68;;;3.92;;
77191;SDS011;66172;48.526;8.078;2024-03-17T10:55:24;10.02;;;4.00;;
77191;SDS011;66172;48.526;8.078;2024-03-17T10:57:52;7.55;;;4.10;;
77191;SDS011;66172;48.526;8.078;2024-03-17T11:00:21;9.00;;;4.17;;
77191;SDS011;66172;48.526;8.078;2024-03-17T11:02:51;8.68;;;4.55;;
77191;SDS011;66172;48.526;8.078;2024-03-17T11:05:24;7.47;;;4.10;;
77191;SDS011;66172;48.526;8.078;2024-03-17T11:07:55;8.52;;;3.80;;
77191;SDS011;66172;48.526;8.078;2024-03-17T11:10:27;6.82;;;3.72;;
77191;SDS011;66172;48.526;8.078;2024-03-17T11:12:58;8.43;;;3.90;;
77191;SDS011;66172;48.526;8.078;2024-03-17T11:20:33;8.40;;;3.53;;
77191;SDS011;66172;48.526;8.078;2024-03-17T11:23:00;7.25;;;3.58;;
77191;SDS011;66172;48.526;8.078;2024-03-17T11:27:53;7.70;;;3.30;;
77191;SDS011;66172;48.526;8.078;2024-03-17T11:30:52;6.45;;;3.22;;
77191;SDS011;66172;48.526;8.078;2024-03-17T11:41:36;7.43;;;3.30;;
77191;SDS011;66172;48.526;8.078;2024-03-17T11:47:05;6.97;;;3.30;;
77191;SDS011;66172;48.526;8.078;2024-03-17T11:52:01;7.15;;;3.20;;
77191;SDS011;66172;48.526;8.078;2024-03-17T11:54:34;6.30;;;3.33;;
77191;SDS011;66172;48.526;8.078;2024-03-17T11:57:02;8.32;;;2.83;;
77191;SDS011;66172;48.526;8.078;2024-03-17T11:59:30;7.63;;;3.20;;
77191;SDS011;66172;48.526;8.078;2024-03-17T12:01:56;8.10;;;3.10;;
77191;SDS011;66172;48.526;8.078;2024-03-17T12:04:22;7.32;;;3.22;;
77191;SDS011;66172;48.526;8.078;2024-03-17T12:06:52;6.72;;;3.20;;
77191;SDS011;66172;48.526;8.078;2024-03-17T12:09:24;7.43;;;3.53;;
77191;SDS011;66172;48.526;8.078;2024-03-17T12:11:59;8.73;;;3.50;;
77191;SDS011;66172;48.526;8.078;2024-03-17T12:14:25;8.37;;;3.30;;
77191;SDS011;66172;48.526;8.078;2024-03-17T12:16:55;6.05;;;3.10;;
77191;SDS011;66172;48.526;8.078;2024-03-17T12:19:22;6.75;;;3.58;;
77191;SDS011;66172;48.526;8.078;2024-03-17T12:21:50;7.65;;;3.17;;
77191;SDS011;66172;48.526;8.078;2024-03-17T12:24:23;7.35;;;3.92;;
77191;SDS011;66172;48.526;8.078;2024-03-17T12:26:56;8.30;;;3.40;;
77191;SDS011;66172;48.526;8.078;2024-03-17T12:29:26;7.90;;;3.45;;
77191;SDS011;66172;48.526;8.078;2024-03-17T12:31:58;7.82;;;3.40;;
77191;SDS011;66172;48.526;8.078;2024-03-17T12:34:27;6.85;;;3.33;;
77191;SDS011;66172;48.526;8.078;2024-03-17T12:36:56;7.22;;;3.22;;
77191;SDS011;66172;48.526;8.078;2024-03-17T12:39:24;7.30;;;3.17;;
77191;SDS011;66172;48.526;8.078;2024-03-17T12:44:36;6.60;;;3.25;;
77191;SDS011;66172;48.526;8.078;2024-03-17T12:47:08;6.22;;;3.20;;
77191;SDS011;66172;48.526;8.078;2024-03-17T12:49:44;8.73;;;3.53;;
77191;SDS011;66172;48.526;8.078;2024-03-17T12:52:20;9.53;;;3.17;;
77191;SDS011;66172;48.526;8.078;2024-03-17T12:55:03;8.98;;;3.28;;
77191;SDS011;66172;48.526;8.078;2024-03-17T13:00:36;8.65;;;3.00;;
77191;SDS011;66172;48.526;8.078;2024-03-17T13:03:03;7.68;;;3.03;;
77191;SDS011;66172;48.526;8.078;2024-03-17T13:08:02;7.38;;;2.97;;
77191;SDS011;66172;48.526;8.078;2024-03-17T13:10:30;8.48;;;3.05;;
77191;SDS011;66172;48.526;8.078;2024-03-17T13:15:29;7.40;;;3.30;;
77191;SDS011;66172;48.526;8.078;2024-03-17T13:17:57;6.03;;;2.57;;
77191;SDS011;66172;48.526;8.078;2024-03-17T13:20:23;6.82;;;3.03;;
77191;SDS011;66172;48.526;8.078;2024-03-17T13:22:50;8.07;;;2.70;;
77191;SDS011;66172;48.526;8.078;2024-03-17T13:25:22;8.45;;;2.35;;
77191;SDS011;66172;48.526;8.078;2024-03-17T13:27:51;6.38;;;1.80;;
77191;SDS011;66172;48.526;8.078;2024-03-17T13:30:19;9.47;;;1.80;;
77191;SDS011;66172;48.526;8.078;2024-03-17T13:32:50;5.15;;;1.40;;
77191;SDS011;66172;48.526;8.078;2024-03-17T13:35:22;6.78;;;1.73;;
77191;SDS011;66172;48.526;8.078;2024-03-17T13:37:49;5.93;;;1.50;;
77191;SDS011;66172;48.526;8.078;2024-03-17T13:40:16;7.00;;;1.60;;
77191;SDS011;66172;48.526;8.078;2024-03-17T13:42:44;7.87;;;1.83;;
77191;SDS011;66172;48.526;8.078;2024-03-17T13:45:11;6.82;;;1.33;;
77191;SDS011;66172;48.526;8.078;2024-03-17T13:47:38;5.68;;;1.60;;
77191;SDS011;66172;48.526;8.078;2024-03-17T13:50:05;6.43;;;1.58;;
77191;SDS011;66172;48.526;8.078;2024-03-17T13:52:36;6.45;;;2.13;;
77191;SDS011;66172;48.526;8.078;2024-03-17T13:55:03;7.13;;;1.83;;
77191;SDS011;66172;48.526;8.078;2024-03-17T13:57:34;6.30;;;1.58;;
77191;SDS011;66172;48.526;8.078;2024-03-17T14:00:00;7.65;;;2.10;;
77191;SDS011;66172;48.526;8.078;2024-03-17T14:02:26;5.65;;;1.60;;
77191;SDS011;66172;48.526;8.078;2024-03-17T14:04:52;7.18;;;1.70;;
77191;SDS011;66172;48.526;8.078;2024-03-17T14:07:18;7.23;;;2.10;;
77191;SDS011;66172;48.526;8.078;2024-03-17T14:09:44;6.28;;;1.92;;
77191;SDS011;66172;48.526;8.078;2024-03-17T14:12:10;5.45;;;2.00;;
77191;SDS011;66172;48.526;8.078;2024-03-17T14:14:36;6.83;;;1.70;;
77191;SDS011;66172;48.526;8.078;2024-03-17T14:17:01;6.03;;;1.85;;
77191;SDS011;66172;48.526;8.078;2024-03-17T14:19:27;6.18;;;1.60;;
77191;SDS011;66172;48.526;8.078;2024-03-17T14:21:53;5.57;;;1.80;;
77191;SDS011;66172;48.526;8.078;2024-03-17T14:24:20;5.55;;;1.52;;
77191;SDS011;66172;48.526;8.078;2024-03-17T14:26:46;6.22;;;1.60;;
77191;SDS011;66172;48.526;8.078;2024-03-17T14:29:12;10.68;;;4.70;;
77191;SDS011;66172;48.526;8.078;2024-03-17T14:31:38;8.75;;;2.80;;
77191;SDS011;66172;48.526;8.078;2024-03-17T14:34:05;6.30;;;2.03;;
77191;SDS011;66172;48.526;8.078;2024-03-17T14:36:31;9.20;;;1.80;;
77191;SDS011;66172;48.526;8.078;2024-03-17T14:39:01;6.47;;;1.67;;
77191;SDS011;66172;48.526;8.078;2024-03-17T14:41:27;6.53;;;1.90;;
77191;SDS011;66172;48.526;8.078;2024-03-17T14:43:55;8.02;;;2.10;;
77191;SDS011;66172;48.526;8.078;2024-03-17T14:46:21;8.20;;;1.60;;
77191;SDS011;66172;48.526;8.078;2024-03-17T14:48:47;6.47;;;1.90;;
77191;SDS011;66172;48.526;8.078;2024-03-17T14:51:13;7.07;;;1.90;;
77191;SDS011;66172;48.526;8.078;2024-03-17T14:53:39;6.77;;;1.60;;
77191;SDS011;66172;48.526;8.078;2024-03-17T14:56:14;9.13;;;1.80;;
77191;SDS011;66172;48.526;8.078;2024-03-17T14:58:41;6.18;;;2.10;;
77191;SDS011;66172;48.526;8.078;2024-03-17T15:01:08;5.22;;;1.50;;
77191;SDS011;66172;48.526;8.078;2024-03-17T15:03:35;6.97;;;2.03;;
77191;SDS011;66172;48.526;8.078;2024-03-17T15:06:01;8.60;;;1.80;;
77191;SDS011;66172;48.526;8.078;2024-03-17T15:08:29;8.65;;;2.80;;
77191;SDS011;66172;48.526;8.078;2024-03-17T15:10:56;7.60;;;2.10;;
77191;SDS011;66172;48.526;8.078;2024-03-17T15:13:22;7.47;;;1.63;;
77191;SDS011;66172;48.526;8.078;2024-03-17T15:15:49;7.60;;;1.83;;
77191;SDS011;66172;48.526;8.078;2024-03-17T15:18:15;6.53;;;2.30;;
77191;SDS011;66172;48.526;8.078;2024-03-17T15:20:41;8.52;;;2.20;;
77191;SDS011;66172;48.526;8.078;2024-03-17T15:23:07;6.97;;;1.92;;
77191;SDS011;66172;48.526;8.078;2024-03-17T15:25:33;8.57;;;1.80;;
77191;SDS011;66172;48.526;8.078;2024-03-17T15:28:00;7.35;;;2.03;;